アリススプリングス の空港の天気 - METARとTAF

アリス・スプリングス空港 ( YBAS / ASP ) - オーストラリア ノーザンテリトリーアリススプリングス
飛行場実況気象(Metar)
観測時間12/18 18:00 ACST (12/18 08:30 UTC)
風向・風速北 7m/s
視程10km以上
天気現象
なし
気温39℃
湿度14%
気圧1004hPa
METARYBAS 180830Z AUTO 35013KT 9999 // NCD 39/07 Q1004 RF00.0/000.0
過去の天気等 Google飛行場航空写真 Wunderground天気予報

過去48時間のMETAR

飛行場予報(TAF)
発表時間: 12/18 14:58 ACST (12/18 05:28 UTC)
予報対象時間: 18日14時 ACST ~ 19日15時 ACST
風向・風速北北西 7m/s
視程10km以上
なし
18日19時 ACST から
風向・風速北西 3m/s
視程10km以上
なし
19日5時 ACST ~ 19日10時 ACST に 確率 30% で一時的に
風向・風速不定 18m/s 瞬間風速 23m/s
視程2,000m
天気現象雷雨
全天の8割程度の雲 雲底高度 910m
全天の4割程度の積乱雲 雲底高度 1,520m
19日14時 ACST ~ 19日15時 ACST に 確率 30% で一時的に
風向・風速不定 18m/s 瞬間風速 23m/s
視程2,000m
天気現象雷雨
全天の8割程度の雲 雲底高度 910m
全天の4割程度の積乱雲 雲底高度 1,520m
TAF AMD YBAS 180528Z 1805/1906 34014KT CAVOK
FM181000 32006KT CAVOK
PROB30 TEMPO 1820/1901 VRB35G45KT 2000 TSRA BKN030 SCT050CB
PROB30 TEMPO 1905/1906 VRB35G45KT 2000 TSRA BKN030 SCT050CB